sensor_id;sensor_type;location;lat;lon;timestamp;temperature;humidity
26035;DHT22;13809;48.632;11.576;2023-05-14T00:02:47;15.50;42.20
26035;DHT22;13809;48.632;11.576;2023-05-14T00:07:51;15.50;42.10
26035;DHT22;13809;48.632;11.576;2023-05-14T00:12:55;15.50;42.20
26035;DHT22;13809;48.632;11.576;2023-05-14T00:17:59;15.50;42.30
26035;DHT22;13809;48.632;11.576;2023-05-14T00:23:02;15.50;42.20
26035;DHT22;13809;48.632;11.576;2023-05-14T00:28:07;15.40;42.30
26035;DHT22;13809;48.632;11.576;2023-05-14T00:33:10;15.40;42.50
26035;DHT22;13809;48.632;11.576;2023-05-14T00:38:13;15.40;42.40
26035;DHT22;13809;48.632;11.576;2023-05-14T00:43:20;15.40;42.50
26035;DHT22;13809;48.632;11.576;2023-05-14T00:48:24;15.40;42.70
26035;DHT22;13809;48.632;11.576;2023-05-14T00:53:27;15.40;42.70
26035;DHT22;13809;48.632;11.576;2023-05-14T00:58:32;15.40;42.80
26035;DHT22;13809;48.632;11.576;2023-05-14T01:03:35;15.40;43.00
26035;DHT22;13809;48.632;11.576;2023-05-14T01:08:56;15.40;42.90
26035;DHT22;13809;48.632;11.576;2023-05-14T01:14:09;15.40;43.40
26035;DHT22;13809;48.632;11.576;2023-05-14T01:19:21;15.40;43.50
26035;DHT22;13809;48.632;11.576;2023-05-14T01:24:25;15.40;43.50
26035;DHT22;13809;48.632;11.576;2023-05-14T01:29:29;15.40;43.20
26035;DHT22;13809;48.632;11.576;2023-05-14T01:34:35;15.40;43.10
26035;DHT22;13809;48.632;11.576;2023-05-14T01:39:41;15.40;43.20
26035;DHT22;13809;48.632;11.576;2023-05-14T01:44:44;15.40;43.30
26035;DHT22;13809;48.632;11.576;2023-05-14T01:49:47;15.40;43.10
26035;DHT22;13809;48.632;11.576;2023-05-14T01:54:52;15.40;43.10
26035;DHT22;13809;48.632;11.576;2023-05-14T01:59:55;15.40;43.40
26035;DHT22;13809;48.632;11.576;2023-05-14T02:04:58;15.40;43.20
26035;DHT22;13809;48.632;11.576;2023-05-14T02:10:03;15.40;43.20
26035;DHT22;13809;48.632;11.576;2023-05-14T02:15:07;15.40;43.40
26035;DHT22;13809;48.632;11.576;2023-05-14T02:20:12;15.40;43.20
26035;DHT22;13809;48.632;11.576;2023-05-14T02:25:16;15.40;43.20
26035;DHT22;13809;48.632;11.576;2023-05-14T02:30:20;15.30;43.40
26035;DHT22;13809;48.632;11.576;2023-05-14T02:35:24;15.30;43.20
26035;DHT22;13809;48.632;11.576;2023-05-14T02:40:28;15.30;43.30
26035;DHT22;13809;48.632;11.576;2023-05-14T02:45:32;15.30;43.50
26035;DHT22;13809;48.632;11.576;2023-05-14T02:50:35;15.30;43.40
26035;DHT22;13809;48.632;11.576;2023-05-14T02:55:39;15.30;43.40
26035;DHT22;13809;48.632;11.576;2023-05-14T03:00:43;15.30;43.80
26035;DHT22;13809;48.632;11.576;2023-05-14T03:05:46;15.30;43.60
26035;DHT22;13809;48.632;11.576;2023-05-14T03:10:51;15.30;43.70
26035;DHT22;13809;48.632;11.576;2023-05-14T03:15:54;15.30;43.90
26035;DHT22;13809;48.632;11.576;2023-05-14T03:20:57;15.30;43.70
26035;DHT22;13809;48.632;11.576;2023-05-14T03:26:02;15.30;43.70
26035;DHT22;13809;48.632;11.576;2023-05-14T03:31:05;15.30;43.90
26035;DHT22;13809;48.632;11.576;2023-05-14T03:36:09;15.30;43.80
26035;DHT22;13809;48.632;11.576;2023-05-14T03:41:13;15.30;43.80
26035;DHT22;13809;48.632;11.576;2023-05-14T03:46:16;15.30;44.10
26035;DHT22;13809;48.632;11.576;2023-05-14T03:51:19;15.30;43.70
26035;DHT22;13809;48.632;11.576;2023-05-14T03:56:24;15.30;43.60
26035;DHT22;13809;48.632;11.576;2023-05-14T04:01:27;15.30;44.00
26035;DHT22;13809;48.632;11.576;2023-05-14T04:06:31;15.30;43.80
26035;DHT22;13809;48.632;11.576;2023-05-14T04:11:36;15.30;43.80
26035;DHT22;13809;48.632;11.576;2023-05-14T04:16:39;15.30;44.00
26035;DHT22;13809;48.632;11.576;2023-05-14T04:21:42;15.30;43.90
26035;DHT22;13809;48.632;11.576;2023-05-14T04:26:47;15.30;43.90
26035;DHT22;13809;48.632;11.576;2023-05-14T04:31:50;15.30;44.30
26035;DHT22;13809;48.632;11.576;2023-05-14T04:36:53;15.40;44.10
26035;DHT22;13809;48.632;11.576;2023-05-14T04:41:58;15.40;44.10
26035;DHT22;13809;48.632;11.576;2023-05-14T04:47:01;15.40;44.40
26035;DHT22;13809;48.632;11.576;2023-05-14T04:52:05;15.40;44.10
26035;DHT22;13809;48.632;11.576;2023-05-14T04:57:10;15.40;44.20
26035;DHT22;13809;48.632;11.576;2023-05-14T05:02:13;15.40;44.40
26035;DHT22;13809;48.632;11.576;2023-05-14T05:07:16;15.40;44.10
26035;DHT22;13809;48.632;11.576;2023-05-14T05:12:21;15.40;44.10
26035;DHT22;13809;48.632;11.576;2023-05-14T05:17:24;15.40;44.40
26035;DHT22;13809;48.632;11.576;2023-05-14T05:22:27;15.40;44.20
26035;DHT22;13809;48.632;11.576;2023-05-14T05:27:31;15.40;44.10
26035;DHT22;13809;48.632;11.576;2023-05-14T05:32:35;15.40;43.90
26035;DHT22;13809;48.632;11.576;2023-05-14T05:37:38;15.50;43.80
26035;DHT22;13809;48.632;11.576;2023-05-14T05:42:43;15.50;43.80
26035;DHT22;13809;48.632;11.576;2023-05-14T05:47:46;15.50;44.10
26035;DHT22;13809;48.632;11.576;2023-05-14T05:52:49;15.60;44.10
26035;DHT22;13809;48.632;11.576;2023-05-14T05:57:54;15.60;44.30
26035;DHT22;13809;48.632;11.576;2023-05-14T06:02:57;15.60;44.30
26035;DHT22;13809;48.632;11.576;2023-05-14T06:08:01;15.70;44.10
26035;DHT22;13809;48.632;11.576;2023-05-14T06:13:06;15.70;43.80
26035;DHT22;13809;48.632;11.576;2023-05-14T06:18:09;15.80;44.00
26035;DHT22;13809;48.632;11.576;2023-05-14T06:23:12;15.80;43.60
26035;DHT22;13809;48.632;11.576;2023-05-14T06:28:17;15.80;43.40
26035;DHT22;13809;48.632;11.576;2023-05-14T06:33:20;15.80;43.50
26035;DHT22;13809;48.632;11.576;2023-05-14T06:38:30;15.80;43.40
26035;DHT22;13809;48.632;11.576;2023-05-14T06:43:35;15.80;43.20
26035;DHT22;13809;48.632;11.576;2023-05-14T06:48:38;15.80;43.20
26035;DHT22;13809;48.632;11.576;2023-05-14T06:53:41;15.80;43.10
26035;DHT22;13809;48.632;11.576;2023-05-14T06:58:46;15.80;43.20
26035;DHT22;13809;48.632;11.576;2023-05-14T07:03:49;15.80;42.80
26035;DHT22;13809;48.632;11.576;2023-05-14T07:08:52;15.80;42.70
26035;DHT22;13809;48.632;11.576;2023-05-14T07:13:57;15.70;42.60
26035;DHT22;13809;48.632;11.576;2023-05-14T07:19:00;15.70;42.90
26035;DHT22;13809;48.632;11.576;2023-05-14T07:24:04;15.70;43.10
26035;DHT22;13809;48.632;11.576;2023-05-14T07:29:09;15.80;43.30
26035;DHT22;13809;48.632;11.576;2023-05-14T07:34:12;15.80;42.90
26035;DHT22;13809;48.632;11.576;2023-05-14T07:39:15;15.90;43.00
26035;DHT22;13809;48.632;11.576;2023-05-14T07:44:19;15.90;42.90
26035;DHT22;13809;48.632;11.576;2023-05-14T07:49:22;16.00;42.60
26035;DHT22;13809;48.632;11.576;2023-05-14T07:54:26;16.00;42.70
26035;DHT22;13809;48.632;11.576;2023-05-14T07:59:30;16.00;42.80
26035;DHT22;13809;48.632;11.576;2023-05-14T08:04:33;16.10;42.90
26035;DHT22;13809;48.632;11.576;2023-05-14T08:09:38;16.20;43.30
26035;DHT22;13809;48.632;11.576;2023-05-14T08:14:43;16.40;43.20
26035;DHT22;13809;48.632;11.576;2023-05-14T08:19:46;16.60;42.90
26035;DHT22;13809;48.632;11.576;2023-05-14T08:24:50;16.70;42.90
26035;DHT22;13809;48.632;11.576;2023-05-14T08:29:54;16.90;43.00
26035;DHT22;13809;48.632;11.576;2023-05-14T08:34:57;17.10;42.50
26035;DHT22;13809;48.632;11.576;2023-05-14T08:40:01;17.20;42.40
26035;DHT22;13809;48.632;11.576;2023-05-14T08:45:10;17.30;42.30
26035;DHT22;13809;48.632;11.576;2023-05-14T08:50:14;17.40;41.40
26035;DHT22;13809;48.632;11.576;2023-05-14T08:55:18;17.50;42.00
26035;DHT22;13809;48.632;11.576;2023-05-14T09:00:23;17.60;42.00
26035;DHT22;13809;48.632;11.576;2023-05-14T09:05:27;17.70;42.20
26035;DHT22;13809;48.632;11.576;2023-05-14T09:10:30;17.80;41.80
26035;DHT22;13809;48.632;11.576;2023-05-14T09:15:36;17.90;41.60
26035;DHT22;13809;48.632;11.576;2023-05-14T09:20:42;18.00;41.00
26035;DHT22;13809;48.632;11.576;2023-05-14T09:25:46;18.00;41.30
26035;DHT22;13809;48.632;11.576;2023-05-14T09:30:51;18.10;41.00
26035;DHT22;13809;48.632;11.576;2023-05-14T09:35:57;18.10;40.40
26035;DHT22;13809;48.632;11.576;2023-05-14T09:41:01;18.20;40.40
26035;DHT22;13809;48.632;11.576;2023-05-14T09:46:06;18.20;41.10
26035;DHT22;13809;48.632;11.576;2023-05-14T09:51:09;18.30;41.00
26035;DHT22;13809;48.632;11.576;2023-05-14T09:56:13;18.40;41.10
26035;DHT22;13809;48.632;11.576;2023-05-14T10:01:18;18.50;41.00
26035;DHT22;13809;48.632;11.576;2023-05-14T10:06:25;18.50;40.10
26035;DHT22;13809;48.632;11.576;2023-05-14T10:11:31;18.60;39.70
26035;DHT22;13809;48.632;11.576;2023-05-14T10:16:40;18.60;40.10
26035;DHT22;13809;48.632;11.576;2023-05-14T10:21:48;18.60;39.20
26035;DHT22;13809;48.632;11.576;2023-05-14T10:26:54;18.70;39.90
26035;DHT22;13809;48.632;11.576;2023-05-14T10:32:03;18.80;40.40
26035;DHT22;13809;48.632;11.576;2023-05-14T10:37:09;18.90;39.20
26035;DHT22;13809;48.632;11.576;2023-05-14T10:42:16;18.90;39.70
26035;DHT22;13809;48.632;11.576;2023-05-14T10:47:21;19.00;39.60
26035;DHT22;13809;48.632;11.576;2023-05-14T10:52:25;19.10;39.00
26035;DHT22;13809;48.632;11.576;2023-05-14T10:57:30;19.20;39.40
26035;DHT22;13809;48.632;11.576;2023-05-14T11:02:36;19.30;39.20
26035;DHT22;13809;48.632;11.576;2023-05-14T11:07:40;19.40;38.70
26035;DHT22;13809;48.632;11.576;2023-05-14T11:12:45;19.50;38.90
26035;DHT22;13809;48.632;11.576;2023-05-14T11:17:51;19.50;38.90
26035;DHT22;13809;48.632;11.576;2023-05-14T11:22:54;19.70;38.30
26035;DHT22;13809;48.632;11.576;2023-05-14T11:27:57;19.80;39.00
26035;DHT22;13809;48.632;11.576;2023-05-14T11:33:03;19.90;39.20
26035;DHT22;13809;48.632;11.576;2023-05-14T11:38:06;20.00;38.40
26035;DHT22;13809;48.632;11.576;2023-05-14T11:43:10;20.10;38.80
26035;DHT22;13809;48.632;11.576;2023-05-14T11:48:15;20.20;38.10
26035;DHT22;13809;48.632;11.576;2023-05-14T11:53:19;20.30;37.20
26035;DHT22;13809;48.632;11.576;2023-05-14T11:58:26;20.40;37.90
26035;DHT22;13809;48.632;11.576;2023-05-14T12:03:31;20.50;37.80
26035;DHT22;13809;48.632;11.576;2023-05-14T12:08:34;20.60;37.10
26035;DHT22;13809;48.632;11.576;2023-05-14T12:13:38;20.60;37.00
26035;DHT22;13809;48.632;11.576;2023-05-14T12:18:43;20.60;37.00
26035;DHT22;13809;48.632;11.576;2023-05-14T12:23:46;20.50;36.90
26035;DHT22;13809;48.632;11.576;2023-05-14T12:28:49;20.50;36.90
26035;DHT22;13809;48.632;11.576;2023-05-14T12:33:59;20.50;36.90
26035;DHT22;13809;48.632;11.576;2023-05-14T12:39:03;20.50;36.70
26035;DHT22;13809;48.632;11.576;2023-05-14T12:44:06;20.50;37.00
26035;DHT22;13809;48.632;11.576;2023-05-14T12:49:11;20.60;37.00
26035;DHT22;13809;48.632;11.576;2023-05-14T12:54:14;20.60;36.60
26035;DHT22;13809;48.632;11.576;2023-05-14T12:59:17;20.70;37.20
26035;DHT22;13809;48.632;11.576;2023-05-14T13:04:22;20.80;36.90
26035;DHT22;13809;48.632;11.576;2023-05-14T13:09:25;20.90;36.40
26035;DHT22;13809;48.632;11.576;2023-05-14T13:14:29;21.00;36.70
26035;DHT22;13809;48.632;11.576;2023-05-14T13:19:33;21.10;36.20
26035;DHT22;13809;48.632;11.576;2023-05-14T13:24:37;21.20;35.40
26035;DHT22;13809;48.632;11.576;2023-05-14T13:29:40;21.30;35.70
26035;DHT22;13809;48.632;11.576;2023-05-14T13:34:44;21.30;35.30
26035;DHT22;13809;48.632;11.576;2023-05-14T13:39:47;21.40;34.80
26035;DHT22;13809;48.632;11.576;2023-05-14T13:44:52;21.40;35.50
26035;DHT22;13809;48.632;11.576;2023-05-14T13:49:58;21.50;35.30
26035;DHT22;13809;48.632;11.576;2023-05-14T13:55:01;21.50;35.20
26035;DHT22;13809;48.632;11.576;2023-05-14T14:00:06;21.50;34.70
26035;DHT22;13809;48.632;11.576;2023-05-14T14:05:11;21.60;34.60
26035;DHT22;13809;48.632;11.576;2023-05-14T14:10:15;21.60;34.80
26035;DHT22;13809;48.632;11.576;2023-05-14T14:15:18;21.70;34.80
26035;DHT22;13809;48.632;11.576;2023-05-14T14:20:23;21.70;34.70
26035;DHT22;13809;48.632;11.576;2023-05-14T14:25:26;21.90;34.10
26035;DHT22;13809;48.632;11.576;2023-05-14T14:30:29;22.00;34.10
26035;DHT22;13809;48.632;11.576;2023-05-14T14:35:33;22.00;34.30
26035;DHT22;13809;48.632;11.576;2023-05-14T14:40:38;22.00;33.80
26035;DHT22;13809;48.632;11.576;2023-05-14T14:45:41;22.10;34.50
26035;DHT22;13809;48.632;11.576;2023-05-14T14:50:50;22.00;34.80
26035;DHT22;13809;48.632;11.576;2023-05-14T14:55:53;21.90;33.50
26035;DHT22;13809;48.632;11.576;2023-05-14T15:00:57;21.80;34.20
26035;DHT22;13809;48.632;11.576;2023-05-14T15:06:01;21.70;34.10
26035;DHT22;13809;48.632;11.576;2023-05-14T15:11:05;21.50;33.30
26035;DHT22;13809;48.632;11.576;2023-05-14T15:16:08;21.40;34.70
26035;DHT22;13809;48.632;11.576;2023-05-14T15:21:13;21.30;33.90
26035;DHT22;13809;48.632;11.576;2023-05-14T15:26:16;21.20;34.00
26035;DHT22;13809;48.632;11.576;2023-05-14T15:31:20;21.00;34.50
26035;DHT22;13809;48.632;11.576;2023-05-14T15:36:24;20.90;34.80
26035;DHT22;13809;48.632;11.576;2023-05-14T15:41:27;20.70;34.60
26035;DHT22;13809;48.632;11.576;2023-05-14T15:46:31;20.50;34.60
26035;DHT22;13809;48.632;11.576;2023-05-14T15:51:36;20.30;35.00
26035;DHT22;13809;48.632;11.576;2023-05-14T15:56:39;20.10;35.00
26035;DHT22;13809;48.632;11.576;2023-05-14T16:01:43;19.90;35.10
26035;DHT22;13809;48.632;11.576;2023-05-14T16:06:47;19.80;35.50
26035;DHT22;13809;48.632;11.576;2023-05-14T16:11:50;19.70;35.50
26035;DHT22;13809;48.632;11.576;2023-05-14T16:16:53;19.70;35.70
26035;DHT22;13809;48.632;11.576;2023-05-14T16:21:58;19.60;35.80
26035;DHT22;13809;48.632;11.576;2023-05-14T16:27:01;19.50;35.90
26035;DHT22;13809;48.632;11.576;2023-05-14T16:32:05;19.50;36.10
26035;DHT22;13809;48.632;11.576;2023-05-14T16:37:10;19.30;35.60
26035;DHT22;13809;48.632;11.576;2023-05-14T16:42:14;19.20;35.80
26035;DHT22;13809;48.632;11.576;2023-05-14T16:47:17;19.10;35.70
26035;DHT22;13809;48.632;11.576;2023-05-14T16:52:22;19.10;35.70
26035;DHT22;13809;48.632;11.576;2023-05-14T16:57:25;19.10;35.70
26035;DHT22;13809;48.632;11.576;2023-05-14T17:02:28;19.00;35.60
26035;DHT22;13809;48.632;11.576;2023-05-14T17:07:33;19.00;35.60
26035;DHT22;13809;48.632;11.576;2023-05-14T17:12:36;18.90;35.50
26035;DHT22;13809;48.632;11.576;2023-05-14T17:17:39;18.90;35.50
26035;DHT22;13809;48.632;11.576;2023-05-14T17:22:44;18.90;35.50
26035;DHT22;13809;48.632;11.576;2023-05-14T17:27:47;18.80;35.50
26035;DHT22;13809;48.632;11.576;2023-05-14T17:32:50;18.70;35.90
26035;DHT22;13809;48.632;11.576;2023-05-14T17:37:55;18.70;36.20
26035;DHT22;13809;48.632;11.576;2023-05-14T17:43:01;18.80;36.30
26035;DHT22;13809;48.632;11.576;2023-05-14T17:48:04;18.80;36.30
26035;DHT22;13809;48.632;11.576;2023-05-14T17:53:09;18.80;36.40
26035;DHT22;13809;48.632;11.576;2023-05-14T17:58:13;18.80;36.80
26035;DHT22;13809;48.632;11.576;2023-05-14T18:03:17;18.80;36.60
26035;DHT22;13809;48.632;11.576;2023-05-14T18:08:22;18.80;36.80
26035;DHT22;13809;48.632;11.576;2023-05-14T18:13:25;18.70;37.00
26035;DHT22;13809;48.632;11.576;2023-05-14T18:18:29;18.70;36.80
26035;DHT22;13809;48.632;11.576;2023-05-14T18:23:34;18.60;37.10
26035;DHT22;13809;48.632;11.576;2023-05-14T18:28:37;18.60;37.30
26035;DHT22;13809;48.632;11.576;2023-05-14T18:33:40;18.60;37.10
26035;DHT22;13809;48.632;11.576;2023-05-14T18:38:45;18.60;37.10
26035;DHT22;13809;48.632;11.576;2023-05-14T18:43:48;18.50;37.50
26035;DHT22;13809;48.632;11.576;2023-05-14T18:48:52;18.50;37.40
26035;DHT22;13809;48.632;11.576;2023-05-14T18:53:56;18.50;37.40
26035;DHT22;13809;48.632;11.576;2023-05-14T18:58:59;18.40;37.50
26035;DHT22;13809;48.632;11.576;2023-05-14T19:04:03;18.30;37.20
26035;DHT22;13809;48.632;11.576;2023-05-14T19:09:09;18.30;37.40
26035;DHT22;13809;48.632;11.576;2023-05-14T19:14:13;18.20;37.40
26035;DHT22;13809;48.632;11.576;2023-05-14T19:19:16;18.10;37.30
26035;DHT22;13809;48.632;11.576;2023-05-14T19:24:20;18.00;37.30
26035;DHT22;13809;48.632;11.576;2023-05-14T19:29:24;18.00;37.70
26035;DHT22;13809;48.632;11.576;2023-05-14T19:34:27;17.90;37.60
26035;DHT22;13809;48.632;11.576;2023-05-14T19:39:32;17.80;37.70
26035;DHT22;13809;48.632;11.576;2023-05-14T19:44:35;17.80;38.10
26035;DHT22;13809;48.632;11.576;2023-05-14T19:49:38;17.80;38.10
26035;DHT22;13809;48.632;11.576;2023-05-14T19:54:43;17.70;38.00
26035;DHT22;13809;48.632;11.576;2023-05-14T19:59:46;17.70;38.50
26035;DHT22;13809;48.632;11.576;2023-05-14T20:04:49;17.60;38.20
26035;DHT22;13809;48.632;11.576;2023-05-14T20:09:57;17.60;38.20
26035;DHT22;13809;48.632;11.576;2023-05-14T20:15:00;17.50;38.30
26035;DHT22;13809;48.632;11.576;2023-05-14T20:20:06;17.40;38.10
26035;DHT22;13809;48.632;11.576;2023-05-14T20:25:11;17.40;38.40
26035;DHT22;13809;48.632;11.576;2023-05-14T20:30:15;17.30;38.70
26035;DHT22;13809;48.632;11.576;2023-05-14T20:35:18;17.30;38.40
26035;DHT22;13809;48.632;11.576;2023-05-14T20:40:23;17.20;38.30
26035;DHT22;13809;48.632;11.576;2023-05-14T20:45:26;17.20;38.70
26035;DHT22;13809;48.632;11.576;2023-05-14T20:50:29;17.10;38.40
26035;DHT22;13809;48.632;11.576;2023-05-14T20:55:34;17.10;38.40
26035;DHT22;13809;48.632;11.576;2023-05-14T21:00:37;17.10;38.80
26035;DHT22;13809;48.632;11.576;2023-05-14T21:05:40;17.00;38.40
26035;DHT22;13809;48.632;11.576;2023-05-14T21:10:45;16.90;38.40
26035;DHT22;13809;48.632;11.576;2023-05-14T21:15:49;16.90;38.90
26035;DHT22;13809;48.632;11.576;2023-05-14T21:20:52;16.80;38.80
26035;DHT22;13809;48.632;11.576;2023-05-14T21:25:56;16.80;39.00
26035;DHT22;13809;48.632;11.576;2023-05-14T21:30:59;16.70;39.40
26035;DHT22;13809;48.632;11.576;2023-05-14T21:36:03;16.60;39.30
26035;DHT22;13809;48.632;11.576;2023-05-14T21:41:08;16.60;39.40
26035;DHT22;13809;48.632;11.576;2023-05-14T21:46:11;16.60;39.70
26035;DHT22;13809;48.632;11.576;2023-05-14T21:51:14;16.50;39.60
26035;DHT22;13809;48.632;11.576;2023-05-14T21:56:18;16.50;39.60
26035;DHT22;13809;48.632;11.576;2023-05-14T22:01:23;16.40;40.10
26035;DHT22;13809;48.632;11.576;2023-05-14T22:06:26;16.40;39.90
26035;DHT22;13809;48.632;11.576;2023-05-14T22:11:31;16.40;40.10
26035;DHT22;13809;48.632;11.576;2023-05-14T22:16:34;16.40;40.50
26035;DHT22;13809;48.632;11.576;2023-05-14T22:21:37;16.40;40.30
26035;DHT22;13809;48.632;11.576;2023-05-14T22:26:42;16.40;40.20
26035;DHT22;13809;48.632;11.576;2023-05-14T22:31:45;16.40;40.70
26035;DHT22;13809;48.632;11.576;2023-05-14T22:36:49;16.40;40.30
26035;DHT22;13809;48.632;11.576;2023-05-14T22:41:53;16.30;40.30
26035;DHT22;13809;48.632;11.576;2023-05-14T22:46:56;16.30;40.80
26035;DHT22;13809;48.632;11.576;2023-05-14T22:52:00;16.20;40.50
26035;DHT22;13809;48.632;11.576;2023-05-14T22:57:05;16.20;40.50
26035;DHT22;13809;48.632;11.576;2023-05-14T23:02:08;16.20;41.00
26035;DHT22;13809;48.632;11.576;2023-05-14T23:07:12;16.20;40.70
26035;DHT22;13809;48.632;11.576;2023-05-14T23:12:16;16.10;40.70
26035;DHT22;13809;48.632;11.576;2023-05-14T23:17:19;16.10;41.20
26035;DHT22;13809;48.632;11.576;2023-05-14T23:22:23;16.10;40.90
26035;DHT22;13809;48.632;11.576;2023-05-14T23:27:27;16.10;40.90
26035;DHT22;13809;48.632;11.576;2023-05-14T23:32:30;16.00;41.20
26035;DHT22;13809;48.632;11.576;2023-05-14T23:37:33;16.00;41.00
26035;DHT22;13809;48.632;11.576;2023-05-14T23:42:43;16.00;41.20
26035;DHT22;13809;48.632;11.576;2023-05-14T23:47:47;15.90;41.50
26035;DHT22;13809;48.632;11.576;2023-05-14T23:52:51;16.00;41.20
26035;DHT22;13809;48.632;11.576;2023-05-14T23:57:55;15.90;41.30
